LFPM 041000Z AUTO 12004KT 050V210 9999 FEW031 BKN042 BKN048 20/12 Q1013

Les avions qui composent notre flotte

Avion Robin DR400-100

Avion école

(freins aux palonniers)

F-GGJG
   * tarif promotionnel appliqué pendant la formation des élèves non brevetés